Time;durP1;ratioP1;P1;durP2;ratioP2;P2;SDS_P1;SDS_P2;PMS_P1;PMS_P2;Temp;Humidity;BMP_temperature;BMP_pressure;BME280_temperature;BME280_humidity;BME280_pressure;Samples;Min_cycle;Max_cycle;Signal;HPM_P1;HPM_P2
2022/08/11 00:02:33;;;;;;;9.40;6.70;;;16.40;99.90;;;;;;5068388;28;20091;-85
2022/08/11 00:05:06;;;;;;;8.75;7.18;;;16.40;1.00;;;;;;5062779;28;20405;-85
2022/08/11 00:07:32;;;;;;;8.63;6.35;;;16.40;99.90;;;;;;5059080;28;20093;-85
2022/08/11 00:09:59;;;;;;;7.72;6.55;;;16.20;99.90;;;;;;5059345;28;20384;-85
2022/08/11 00:12:26;;;;;;;7.65;6.85;;;16.20;99.90;;;;;;5039943;28;20071;-85
2022/08/11 00:14:58;;;;;;;9.10;6.35;;;16.20;99.90;;;;;;5060164;28;20032;-85
2022/08/11 00:17:31;;;;;;;11.05;7.82;;;16.10;99.90;;;;;;5090095;28;20047;-85
2022/08/11 00:20:07;;;;;;;12.38;7.60;;;16.30;1.00;;;;;;5048775;28;20532;-85
2022/08/11 00:22:35;;;;;;;7.97;7.18;;;16.30;1.00;;;;;;5045057;28;20036;-85
2022/08/11 00:25:12;;;;;;;8.88;7.38;;;16.20;1.00;;;;;;5043399;28;20348;-85
2022/08/11 00:27:40;;;;;;;8.82;7.70;;;16.10;99.90;;;;;;5073141;28;20047;-84
2022/08/11 00:30:07;;;;;;;9.38;7.70;;;16.10;1.00;;;;;;5057259;28;20079;-84
2022/08/11 00:32:34;;;;;;;9.02;7.43;;;16.20;1.00;;;;;;5069321;28;20040;-85
2022/08/11 00:35:03;;;;;;;10.18;7.15;;;16.10;99.90;;;;;;5062438;28;20727;-85
2022/08/11 00:37:29;;;;;;;8.68;7.28;;;16.10;1.00;;;;;;5045920;28;20488;-84
2022/08/11 00:39:56;;;;;;;8.10;7.13;;;16.00;1.00;;;;;;5062258;28;20448;-85
2022/08/11 00:42:55;;;;;;;8.93;6.38;;;16.00;1.00;;;;;;5042269;28;20044;-85
2022/08/11 00:45:45;;;;;;;9.50;7.35;;;15.90;1.00;;;;;;5084271;28;20134;-85
2022/08/11 00:48:38;;;;;;;8.18;7.07;;;15.90;92.00;;;;;;5062146;28;20087;-84
2022/08/11 00:51:14;;;;;;;8.85;7.63;;;15.80;1.00;;;;;;5087287;28;20492;-85
2022/08/11 00:53:58;;;;;;;9.70;6.90;;;15.70;1.00;;;;;;5043127;28;20114;-85
2022/08/11 00:57:02;;;;;;;10.18;7.47;;;15.60;1.00;;;;;;5040548;28;20032;-84
2022/08/11 00:59:49;;;;;;;9.40;7.35;;;15.70;99.90;;;;;;5066298;28;20043;-83
2022/08/11 01:02:37;;;;;;;9.55;8.32;;;15.70;99.90;;;;;;5044588;28;20545;-84
2022/08/11 01:05:23;;;;;;;10.20;8.50;;;15.70;1.00;;;;;;5057606;28;20548;-84
2022/08/11 01:08:10;;;;;;;10.02;8.55;;;15.60;10.00;;;;;;5047037;28;20185;-84
2022/08/11 01:10:59;;;;;;;10.75;8.20;;;15.60;94.20;;;;;;5065703;28;20522;-84
2022/08/11 01:13:37;;;;;;;10.43;9.00;;;15.60;97.30;;;;;;5041959;28;20044;-84
2022/08/11 01:16:24;;;;;;;14.57;9.75;;;15.60;91.30;;;;;;5039348;28;20399;-84
2022/08/11 01:19:29;;;;;;;12.65;8.82;;;15.70;95.80;;;;;;5084153;28;20033;-84
2022/08/11 01:22:32;;;;;;;11.93;8.82;;;15.60;96.40;;;;;;5045742;28;20407;-84
2022/08/11 01:25:25;;;;;;;11.75;10.00;;;15.60;99.90;;;;;;5084888;28;20277;-84
2022/08/11 01:28:21;;;;;;;12.93;9.40;;;15.60;99.90;;;;;;5085553;28;20882;-84
2022/08/11 01:30:53;;;;;;;11.43;8.52;;;15.60;99.90;;;;;;5041838;28;20116;-84
2022/08/11 01:34:00;;;;;;;10.65;8.38;;;15.60;99.90;;;;;;5068411;28;20165;-85
2022/08/11 01:36:49;;;;;;;9.55;7.65;;;15.50;99.90;;;;;;5044567;28;20068;-84
2022/08/11 01:39:30;;;;;;;12.18;9.13;;;15.50;99.90;;;;;;5083680;28;20066;-84
2022/08/11 01:45:43;;;;;;;11.10;9.05;;;15.50;99.90;;;;;;5053573;28;20045;-84
2022/08/11 01:48:43;;;;;;;11.93;9.68;;;15.50;99.90;;;;;;5059352;28;20058;-84
2022/08/11 01:51:44;;;;;;;11.70;9.70;;;15.50;99.90;;;;;;5056931;28;20513;-84
2022/08/11 01:54:24;;;;;;;10.65;8.38;;;15.50;99.90;;;;;;5043952;28;20435;-84
2022/08/11 01:57:08;;;;;;;14.07;10.48;;;15.30;99.90;;;;;;5062944;28;20367;-84
2022/08/11 01:59:47;;;;;;;11.10;9.50;;;15.40;1.00;;;;;;5040160;28;20047;-84
2022/08/11 02:02:44;;;;;;;10.38;7.38;;;15.30;99.90;;;;;;5068226;28;20124;-84
2022/08/11 02:05:13;;;;;;;12.82;9.48;;;15.30;99.90;;;;;;5056701;28;20051;-84
2022/08/11 02:08:10;;;;;;;15.68;11.02;;;15.30;1.00;;;;;;5084371;28;20068;-84
2022/08/11 02:13:35;;;;;;;8.88;6.80;;;15.30;1.00;;;;;;5083996;28;20036;-84
2022/08/11 02:16:10;;;;;;;240.07;13.10;;;15.10;99.90;;;;;;5085706;28;20628;-84
2022/08/11 02:24:40;;;;;;;9.07;7.53;;;15.20;99.90;;;;;;5054384;28;20123;-84
2022/08/11 02:27:22;;;;;;;6.00;5.38;;;15.20;99.90;;;;;;5063060;28;20055;-84
2022/08/11 02:30:17;;;;;;;8.27;6.68;;;15.10;1.00;;;;;;5058972;28;20071;-84
2022/08/11 02:33:24;;;;;;;8.98;7.93;;;15.10;17.00;;;;;;5037955;28;20040;-84
2022/08/11 02:35:58;;;;;;;117.65;10.75;;;15.10;65.70;;;;;;5061523;28;20526;-84
2022/08/11 02:38:24;;;;;;;10.45;6.97;;;14.90;1.00;;;;;;5059145;28;20518;-84
2022/08/11 02:42:21;;;;;;;34.00;8.45;;;15.00;99.90;;;;;;5087418;28;20053;-84
2022/08/11 02:44:13;;;;;;;38.78;11.05;;;15.00;99.90;;;;;;5058519;28;20037;-84
2022/08/11 02:46:57;;;;;;;21.67;8.88;;;15.00;99.90;;;;;;5054495;28;20036;-84
2022/08/11 02:49:55;;;;;;;9.90;8.10;;;14.90;99.90;;;;;;5089982;28;20036;-84
2022/08/11 02:52:48;;;;;;;10.88;8.90;;;14.90;72.70;;;;;;5061934;28;20106;-84
2022/08/11 02:55:39;;;;;;;14.40;10.90;;;14.90;99.90;;;;;;5089009;28;20504;-84
2022/08/11 02:58:17;;;;;;;16.15;10.50;;;14.90;99.90;;;;;;5069830;28;20660;-84
2022/08/11 03:01:01;;;;;;;17.85;12.27;;;15.00;99.90;;;;;;5061065;28;20403;-84
2022/08/11 03:03:45;;;;;;;12.85;10.73;;;15.00;99.90;;;;;;5061729;28;20052;-84
2022/08/11 03:06:37;;;;;;;18.33;12.65;;;15.00;99.90;;;;;;5086722;28;20028;-84
2022/08/11 03:09:17;;;;;;;17.83;12.73;;;15.00;99.90;;;;;;5061636;28;20040;-84
2022/08/11 03:18:44;;;;;;;20.73;15.30;;;15.00;99.90;;;;;;5016145;28;20080;-84
2022/08/11 03:21:27;;;;;;;22.42;15.10;;;15.10;99.90;;;;;;5000594;28;20033;-84
2022/08/11 03:24:02;;;;;;;19.98;14.60;;;15.10;99.90;;;;;;5025163;28;20055;-84
2022/08/11 03:27:09;;;;;;;18.20;13.98;;;15.10;99.90;;;;;;5042635;28;20035;-84
2022/08/11 03:29:46;;;;;;;20.02;13.32;;;15.10;1.00;;;;;;5036670;28;20114;-84
2022/08/11 03:32:29;;;;;;;14.60;11.45;;;15.00;99.90;;;;;;5073871;28;20079;-84
2022/08/11 03:34:59;;;;;;;15.63;12.23;;;14.90;99.90;;;;;;5045081;28;20140;-85
2022/08/11 03:37:52;;;;;;;16.20;11.77;;;14.90;99.90;;;;;;5074989;28;20123;-84
2022/08/11 03:41:41;;;;;;;21.55;15.77;;;14.90;99.90;;;;;;5046895;28;20032;-85
2022/08/11 03:43:44;;;;;;;42.25;21.25;;;15.00;99.90;;;;;;5077351;28;20577;-85
2022/08/11 03:46:37;;;;;;;19.50;14.73;;;15.10;1.00;;;;;;5041167;28;20070;-84
2022/08/11 03:49:19;;;;;;;20.25;15.23;;;15.00;1.00;;;;;;5044064;28;20755;-84
2022/08/11 03:52:26;;;;;;;14.90;12.43;;;15.00;1.00;;;;;;5084903;28;20036;-84
2022/08/11 03:55:11;;;;;;;22.70;15.82;;;15.00;1.00;;;;;;5049473;28;20122;-84
2022/08/11 03:58:06;;;;;;;22.17;15.77;;;15.10;1.00;;;;;;5067667;28;20040;-84
2022/08/11 04:01:05;;;;;;;21.40;12.88;;;15.00;1.00;;;;;;5080446;28;20051;-84
2022/08/11 04:03:34;;;;;;;15.65;12.18;;;15.00;1.00;;;;;;5061562;28;20094;-84
2022/08/11 04:06:27;;;;;;;18.98;14.50;;;15.00;1.00;;;;;;5080513;28;20040;-84
2022/08/11 04:09:45;;;;;;;20.55;15.45;;;15.00;3.90;;;;;;5063513;28;20032;-84
2022/08/11 04:12:25;;;;;;;21.33;15.90;;;15.00;70.20;;;;;;5039353;28;20059;-83
2022/08/11 04:18:29;;;;;;;20.65;14.90;;;15.00;99.90;;;;;;5082305;28;20358;-84
2022/08/11 04:21:04;;;;;;;21.33;14.45;;;15.00;70.90;;;;;;5043740;28;20038;-83
2022/08/11 04:23:49;;;;;;;16.25;13.00;;;15.00;7.70;;;;;;5081796;28;20399;-83
2022/08/11 04:26:24;;;;;;;20.50;14.95;;;14.90;1.00;;;;;;5063977;28;20029;-84
2022/08/11 04:29:11;;;;;;;20.80;14.65;;;15.00;1.00;;;;;;5041403;28;20063;-84
2022/08/11 04:31:46;;;;;;;24.70;14.25;;;15.10;1.00;;;;;;5073367;28;20440;-84
2022/08/11 04:34:45;;;;;;;25.83;16.50;;;15.10;52.50;;;;;;5058508;28;20044;-84
2022/08/11 04:37:33;;;;;;;22.27;14.82;;;15.10;19.40;;;;;;5082465;28;20479;-84
2022/08/11 04:40:26;;;;;;;18.45;13.23;;;15.10;49.90;;;;;;5061384;28;20483;-84
2022/08/11 04:43:31;;;;;;;24.95;15.48;;;15.10;11.40;;;;;;5041951;28;20543;-84
2022/08/11 04:46:21;;;;;;;19.60;13.57;;;15.20;70.10;;;;;;5066681;28;20044;-84
2022/08/11 05:01:41;;;;;;;15.05;12.30;;;15.40;59.90;;;;;;5059454;28;20052;-85
2022/08/11 05:07:52;;;;;;;15.23;10.88;;;15.60;34.40;;;;;;5084146;28;20538;-83
2022/08/11 05:10:37;;;;;;;12.55;11.02;;;15.70;21.80;;;;;;5062427;28;20051;-83
2022/08/11 05:36:42;;;;;;;18.58;15.32;;;16.80;1.00;;;;;;5059493;28;20032;-85
2022/08/11 05:58:49;;;;;;;19.00;14.85;;;17.60;99.90;;;;;;5088357;28;20047;-84
2022/08/11 06:01:27;;;;;;;17.70;14.95;;;17.70;1.00;;;;;;5043359;28;20052;-84
2022/08/11 06:04:14;;;;;;;17.42;14.25;;;17.80;1.00;;;;;;5071461;28;20250;-84
2022/08/11 06:07:05;;;;;;;18.77;14.38;;;17.80;1.00;;;;;;5068291;28;20879;-84
2022/08/11 06:09:46;;;;;;;20.08;14.70;;;18.00;99.90;;;;;;5059089;28;20047;-84
2022/08/11 06:12:25;;;;;;;20.90;14.18;;;18.00;99.90;;;;;;5086924;28;20439;-84
2022/08/11 06:14:56;;;;;;;15.90;12.65;;;18.10;99.90;;;;;;5066449;28;20074;-84
2022/08/11 06:17:29;;;;;;;15.77;13.73;;;18.10;99.90;;;;;;5057620;28;20444;-84
2022/08/11 06:20:05;;;;;;;17.60;13.73;;;18.20;99.90;;;;;;5041640;28;20464;-84
2022/08/11 06:22:32;;;;;;;16.88;12.30;;;18.40;99.90;;;;;;5062384;28;20040;-84
2022/08/11 06:25:04;;;;;;;17.23;13.02;;;18.40;43.00;;;;;;5041002;28;20136;-84
2022/08/11 06:27:32;;;;;;;19.02;12.80;;;18.40;1.00;;;;;;5041575;28;20174;-86
2022/08/11 06:29:58;;;;;;;17.10;12.48;;;18.50;1.00;;;;;;5064639;28;20041;-85
2022/08/11 06:32:27;;;;;;;15.30;12.40;;;18.60;1.00;;;;;;5070916;28;20045;-84
2022/08/11 06:35:15;;;;;;;14.93;11.80;;;18.70;1.00;;;;;;5076873;28;20032;-84
2022/08/11 06:38:06;;;;;;;12.18;10.88;;;18.90;99.90;;;;;;5050383;28;20415;-84
2022/08/11 06:40:42;;;;;;;11.98;10.32;;;18.80;99.90;;;;;;5046329;28;20127;-85
2022/08/11 06:43:10;;;;;;;12.90;10.68;;;19.00;99.90;;;;;;5059657;28;20051;-84
2022/08/11 06:45:40;;;;;;;16.08;10.95;;;19.10;99.90;;;;;;5063932;28;20047;-85
2022/08/11 06:48:17;;;;;;;13.73;10.30;;;19.20;99.90;;;;;;5047804;28;20569;-84
2022/08/11 06:51:13;;;;;;;14.73;10.00;;;19.30;99.90;;;;;;5092740;28;20036;-84
2022/08/11 06:53:47;;;;;;;12.27;9.60;;;19.40;99.90;;;;;;5048611;28;20054;-85
2022/08/11 07:02:04;;;;;;;12.20;9.88;;;19.70;1.00;;;;;;5093179;28;20048;-84
2022/08/11 07:04:52;;;;;;;10.43;8.80;;;19.70;99.90;;;;;;5073617;28;20037;-85
2022/08/11 07:16:47;;;;;;;11.23;8.38;;;20.20;99.90;;;;;;5085709;28;20049;-83
2022/08/11 07:31:08;;;;;;;8.45;6.68;;;20.70;1.00;;;;;;5059591;28;20260;-85
2022/08/11 07:33:49;;;;;;;11.77;6.75;;;20.80;1.00;;;;;;5058449;28;20503;-85
2022/08/11 07:36:17;;;;;;;11.68;6.22;;;20.90;99.90;;;;;;5079080;28;20047;-85
2022/08/11 07:38:49;;;;;;;7.90;5.82;;;21.10;1.00;;;;;;5050027;28;20043;-85
2022/08/11 07:41:18;;;;;;;9.32;5.53;;;21.10;99.90;;;;;;5060679;28;20453;-85
2022/08/11 07:43:47;;;;;;;6.70;5.82;;;21.20;99.90;;;;;;5046352;28;20119;-86
2022/08/11 07:54:32;;;;;;;8.52;5.40;;;21.60;99.90;;;;;;5068416;28;20081;-85
2022/08/11 07:56:58;;;;;;;6.35;4.97;;;21.80;99.90;;;;;;5046998;28;20048;-86
2022/08/11 08:18:45;;;;;;;6.85;4.07;;;22.60;99.90;;;;;;5085237;28;20039;-85
2022/08/11 08:21:10;;;;;;;9.75;4.40;;;22.90;85.60;;;;;;5062417;28;20068;-85
2022/08/11 08:23:38;;;;;;;6.30;4.18;;;22.90;99.90;;;;;;5064292;28;20079;-85
2022/08/11 08:30:46;;;;;;;4.65;3.17;;;23.00;12.50;;;;;;5034264;28;20044;-86
2022/08/11 08:31:42;;;;;;;4.18;3.10;;;23.20;99.90;;;;;;5062668;28;20070;-86
2022/08/11 08:34:09;;;;;;;3.95;3.33;;;23.40;99.90;;;;;;5065093;28;20036;-85
2022/08/11 08:36:36;;;;;;;4.38;2.70;;;23.60;99.90;;;;;;5045640;28;20071;-86
2022/08/11 08:39:02;;;;;;;5.07;2.90;;;23.60;99.90;;;;;;5042213;28;20043;-85
2022/08/11 08:41:33;;;;;;;4.82;3.13;;;23.80;99.90;;;;;;5059214;28;20036;-86
2022/08/11 08:44:06;;;;;;;3.75;3.03;;;23.80;99.90;;;;;;5061749;28;20086;-85
2022/08/11 08:46:41;;;;;;;4.55;2.67;;;24.00;99.90;;;;;;5042478;28;21288;-85
2022/08/11 08:49:09;;;;;;;;;;;24.30;99.90;;;;;;5044708;28;20668;-85
2022/08/11 08:51:37;;;;;;;4.07;3.33;;;24.20;99.90;;;;;;5059696;28;20043;-86
2022/08/11 08:54:09;;;;;;;5.15;2.80;;;24.40;99.90;;;;;;5061269;28;20047;-85
2022/08/11 08:56:39;;;;;;;6.32;2.60;;;24.60;99.90;;;;;;5060858;28;20743;-85
2022/08/11 08:59:05;;;;;;;3.85;2.75;;;24.70;99.90;;;;;;5045767;28;20029;-86
2022/08/11 09:01:40;;;;;;;5.68;3.30;;;24.70;99.90;;;;;;5072401;28;20529;-86
2022/08/11 09:04:10;;;;;;;7.50;2.67;;;24.90;99.90;;;;;;5068788;28;20036;-85
2022/08/11 09:06:44;;;;;;;4.63;2.92;;;25.00;99.90;;;;;;5059104;28;20645;-86
2022/08/11 09:09:11;;;;;;;8.20;2.92;;;24.90;22.70;;;;;;5057139;28;20055;-86
2022/08/11 09:11:53;;;;;;;4.05;2.42;;;25.10;1.00;;;;;;5062798;28;20044;-85
2022/08/11 09:14:22;;;;;;;7.65;2.88;;;25.30;1.00;;;;;;5057211;28;20091;-86
2022/08/11 09:16:49;;;;;;;5.88;2.50;;;25.40;1.00;;;;;;5042518;28;20037;-86
2022/08/11 09:19:18;;;;;;;5.57;2.65;;;25.60;1.00;;;;;;5063502;28;20613;-86
2022/08/11 09:27:24;;;;;;;5.97;2.03;;;26.00;1.00;;;;;;5061285;28;20547;-86
2022/08/11 09:29:51;;;;;;;6.55;2.22;;;26.20;99.90;;;;;;5043315;28;20083;-87
2022/08/11 09:32:21;;;;;;;4.72;2.58;;;26.30;99.90;;;;;;5043024;28;20072;-86
2022/08/11 09:34:50;;;;;;;7.00;2.10;;;26.50;99.90;;;;;;5046941;28;20378;-86
2022/08/11 09:45:33;;;;;;;4.80;2.17;;;26.80;99.90;;;;;;5087884;28;20055;-87
2022/08/11 09:48:04;;;;;;;9.68;1.90;;;27.10;99.90;;;;;;5044862;28;20040;-86
2022/08/11 09:50:34;;;;;;;5.80;2.08;;;27.10;99.90;;;;;;5043962;28;20032;-86
2022/08/11 09:53:04;;;;;;;4.13;2.08;;;27.30;99.90;;;;;;5046975;28;20117;-86
2022/08/11 09:55:32;;;;;;;4.85;1.88;;;27.30;99.90;;;;;;5044166;28;20059;-86
2022/08/11 09:58:17;;;;;;;3.33;1.60;;;27.40;99.90;;;;;;5043992;28;20025;-86
2022/08/11 10:00:46;;;;;;;4.25;1.80;;;27.50;99.90;;;;;;5044141;28;20070;-87
2022/08/11 10:03:24;;;;;;;4.28;1.70;;;27.80;99.90;;;;;;5061661;28;20064;-86
2022/08/11 10:08:46;;;;;;;3.47;1.85;;;27.90;99.90;;;;;;5057478;28;20081;-86
2022/08/11 10:11:17;;;;;;;5.53;1.77;;;27.90;99.90;;;;;;5059434;28;20094;-86
2022/08/11 10:16:42;;;;;;;4.70;1.80;;;28.10;89.20;;;;;;5054831;28;20048;-86
2022/08/11 10:19:09;;;;;;;4.07;1.75;;;28.00;63.60;;;;;;5040234;28;20551;-86
2022/08/11 10:27:22;;;;;;;4.13;1.80;;;28.40;51.80;;;;;;5062545;28;20074;-86
2022/08/11 10:35:21;;;;;;;2.33;1.88;;;28.90;34.30;;;;;;5086234;28;20502;-85
2022/08/11 10:37:48;;;;;;;4.13;1.88;;;29.00;21.00;;;;;;5061435;28;20067;-85
2022/08/11 10:40:16;;;;;;;3.15;1.73;;;29.00;15.70;;;;;;5078292;28;20040;-86
2022/08/11 10:43:01;;;;;;;4.10;1.83;;;29.10;18.30;;;;;;5069480;28;20557;-86
2022/08/11 10:48:20;;;;;;;3.08;1.65;;;29.30;1.00;;;;;;5062810;28;20041;-86
2022/08/11 10:59:07;;;;;;;2.90;1.75;;;29.40;1.00;;;;;;5062611;28;20040;-86
2022/08/11 11:01:37;;;;;;;2.08;1.63;;;29.40;1.00;;;;;;5071610;28;20049;-87
2022/08/11 11:04:12;;;;;;;3.00;1.73;;;29.40;1.00;;;;;;5085684;28;20083;-86
2022/08/11 11:06:58;;;;;;;3.95;1.70;;;29.50;1.00;;;;;;5067294;28;20116;-86
2022/08/11 11:09:31;;;;;;;5.47;1.70;;;29.50;1.00;;;;;;5067140;28;20041;-86
2022/08/11 11:17:55;;;;;;;3.78;1.55;;;29.10;1.00;;;;;;5053912;28;20442;-86
2022/08/11 11:20:46;;;;;;;2.88;1.80;;;29.60;1.00;;;;;;5043179;28;20115;-87
2022/08/11 11:23:31;;;;;;;3.85;1.60;;;29.90;1.00;;;;;;5042482;28;20036;-88
2022/08/11 11:26:09;;;;;;;3.55;1.73;;;30.10;1.00;;;;;;5065829;28;20040;-87
2022/08/11 11:28:50;;;;;;;3.58;1.63;;;30.40;1.00;;;;;;5046465;28;20201;-87
2022/08/11 11:31:35;;;;;;;5.82;1.67;;;30.40;1.00;;;;;;5066497;28;20036;-87
2022/08/11 11:34:16;;;;;;;2.58;1.67;;;30.40;1.00;;;;;;5075547;28;20048;-86
2022/08/11 11:36:54;;;;;;;3.90;1.75;;;30.40;1.00;;;;;;5089478;28;20112;-87
2022/08/11 11:39:30;;;;;;;2.20;1.60;;;30.80;1.00;;;;;;5063509;28;20040;-87
2022/08/11 11:42:00;;;;;;;3.55;1.70;;;30.50;1.00;;;;;;5068988;28;20036;-86
2022/08/11 11:44:26;;;;;;;3.72;1.65;;;30.60;1.00;;;;;;5064642;28;20040;-87
2022/08/11 11:46:52;;;;;;;3.25;1.30;;;30.80;1.00;;;;;;5049835;28;20484;-87
2022/08/11 11:49:22;;;;;;;2.17;1.40;;;31.10;1.00;;;;;;5076657;28;20044;-87
2022/08/11 11:51:51;;;;;;;2.05;1.38;;;31.20;1.00;;;;;;5059349;28;20391;-87
2022/08/11 11:54:21;;;;;;;2.15;1.52;;;31.40;1.00;;;;;;5046296;28;20087;-87
2022/08/11 11:56:47;;;;;;;3.67;1.25;;;31.40;1.00;;;;;;5071607;28;20044;-87
2022/08/11 12:01:59;;;;;;;2.70;1.40;;;31.30;1.00;;;;;;5059336;28;20118;-86
2022/08/11 12:04:26;;;;;;;2.35;1.60;;;31.60;1.00;;;;;;5072848;28;20045;-86
2022/08/11 12:08:08;;;;;;;2.80;1.40;;;31.70;1.00;;;;;;5048596;28;20491;-87
2022/08/11 12:09:40;;;;;;;1.63;1.38;;;31.00;1.00;;;;;;5083317;28;20197;-86
2022/08/11 12:14:53;;;;;;;3.15;1.35;;;31.50;1.00;;;;;;5063325;28;20063;-87
2022/08/11 12:17:19;;;;;;;1.73;1.50;;;31.50;1.00;;;;;;5079176;28;20063;-87
2022/08/11 12:19:45;;;;;;;2.45;1.50;;;31.30;1.00;;;;;;5048165;28;20487;-87
2022/08/11 12:27:42;;;;;;;3.65;1.40;;;32.00;1.00;;;;;;5065082;28;20078;-87
2022/08/11 12:30:08;;;;;;;3.63;1.70;;;32.10;1.00;;;;;;5070421;28;20059;-87
2022/08/11 12:32:36;;;;;;;3.70;1.48;;;31.60;1.00;;;;;;5073345;28;20098;-86
2022/08/11 12:35:04;;;;;;;1.75;1.27;;;32.00;1.00;;;;;;5084995;28;20097;-87
2022/08/11 12:37:35;;;;;;;3.03;1.55;;;32.00;1.00;;;;;;5063327;28;20553;-86
2022/08/11 12:45:40;;;;;;;1.88;1.33;;;32.10;1.00;;;;;;5061432;28;20044;-87
2022/08/11 12:54:16;;;;;;;2.17;1.40;;;31.90;1.00;;;;;;5062621;28;20562;-86
2022/08/11 13:05:13;;;;;;;2.78;1.45;;;32.60;1.00;;;;;;5061322;28;20028;-87
2022/08/11 13:07:41;;;;;;;3.65;1.85;;;33.00;1.00;;;;;;5091003;28;20093;-88
2022/08/11 13:10:09;;;;;;;4.68;1.58;;;32.70;1.00;;;;;;5047216;28;22271;-86
2022/08/11 13:12:48;;;;;;;2.17;1.30;;;32.80;1.00;;;;;;5049410;28;20036;-86
2022/08/11 13:15:20;;;;;;;3.20;1.50;;;33.20;1.00;;;;;;5047736;28;20047;-87
2022/08/11 13:17:49;;;;;;;1.98;1.20;;;32.70;1.00;;;;;;5044750;28;20036;-86
2022/08/11 13:20:18;;;;;;;7.22;1.60;;;33.00;1.00;;;;;;5049292;28;20032;-87
2022/08/11 13:22:48;;;;;;;3.70;1.25;;;32.10;1.00;;;;;;5043218;28;20085;-87
2022/08/11 13:25:17;;;;;;;3.22;1.50;;;32.30;1.00;;;;;;5074340;28;20040;-86
2022/08/11 13:27:48;;;;;;;2.25;1.40;;;32.40;1.00;;;;;;5090850;28;20098;-86
2022/08/11 13:33:00;;;;;;;1.75;1.33;;;33.20;1.00;;;;;;5062618;28;20046;-87
2022/08/11 13:35:27;;;;;;;3.88;1.55;;;32.80;1.00;;;;;;5051457;28;20038;-87
2022/08/11 13:37:55;;;;;;;3.65;1.33;;;32.60;1.00;;;;;;5075242;28;20039;-87
2022/08/11 13:40:21;;;;;;;3.03;1.50;;;32.10;1.00;;;;;;5067491;28;20561;-87
2022/08/11 13:42:52;;;;;;;3.47;1.30;;;32.70;1.00;;;;;;5049319;28;20556;-88
2022/08/11 13:45:24;;;;;;;2.17;1.40;;;31.80;1.00;;;;;;5062904;28;20045;-86
2022/08/11 13:47:54;;;;;;;1.58;1.40;;;32.70;1.00;;;;;;5054527;28;20101;-86
2022/08/11 13:50:20;;;;;;;2.45;1.30;;;33.10;1.00;;;;;;5090382;28;20144;-86
2022/08/11 13:52:49;;;;;;;3.30;1.45;;;33.20;1.00;;;;;;5051127;28;20041;-87
2022/08/11 13:55:20;;;;;;;6.32;1.38;;;33.60;1.00;;;;;;5063504;28;20033;-87
2022/08/11 13:57:53;;;;;;;2.15;1.40;;;33.30;1.00;;;;;;5058331;28;20415;-86
2022/08/11 14:00:19;;;;;;;1.98;1.40;;;33.70;1.00;;;;;;5043607;28;20041;-87
2022/08/11 14:02:49;;;;;;;2.92;1.73;;;33.70;1.00;;;;;;5084469;28;20045;-87
2022/08/11 14:05:27;;;;;;;2.80;1.35;;;33.50;1.00;;;;;;5031361;28;20048;-86
2022/08/11 14:08:03;;;;;;;2.05;1.40;;;33.90;1.00;;;;;;5074004;28;20043;-87
2022/08/11 14:10:32;;;;;;;4.53;1.60;;;33.80;1.00;;;;;;5066556;28;20484;-86
2022/08/11 14:15:56;;;;;;;2.97;1.40;;;34.00;1.00;;;;;;5064025;28;20080;-88
2022/08/11 14:18:27;;;;;;;2.47;1.35;;;33.80;1.00;;;;;;5040791;28;20707;-88
2022/08/11 14:23:42;;;;;;;3.83;1.38;;;34.10;1.00;;;;;;5060023;28;20107;-87
2022/08/11 14:26:22;;;;;;;1.83;1.20;;;34.20;1.00;;;;;;5049603;28;20090;-87
2022/08/11 14:28:52;;;;;;;1.80;1.17;;;34.40;1.00;;;;;;5040154;28;20036;-88
2022/08/11 14:31:18;;;;;;;1.73;1.38;;;33.80;1.00;;;;;;5043947;28;20040;-87
2022/08/11 14:33:45;;;;;;;3.63;1.30;;;34.10;1.00;;;;;;5044024;28;20044;-86
2022/08/11 14:36:11;;;;;;;2.70;1.27;;;32.90;1.00;;;;;;5069648;28;20029;-87
2022/08/11 14:38:39;;;;;;;2.38;1.23;;;33.10;1.00;;;;;;5075090;28;20044;-87
2022/08/11 14:49:26;;;;;;;3.50;1.30;;;33.90;1.00;;;;;;5057426;28;20068;-87
2022/08/11 14:51:53;;;;;;;3.17;1.48;;;34.80;1.00;;;;;;5042905;28;20307;-87
2022/08/11 14:57:08;;;;;;;1.42;1.20;;;34.50;1.00;;;;;;5089683;28;20047;-87
2022/08/11 14:59:36;;;;;;;3.58;1.38;;;36.20;1.00;;;;;;5077229;28;20112;-86
2022/08/11 15:04:48;;;;;;;2.60;1.45;;;35.70;1.00;;;;;;5063126;28;20056;-87
2022/08/11 15:07:15;;;;;;;5.32;1.50;;;36.80;1.00;;;;;;5076224;28;20461;-87
2022/08/11 15:09:42;;;;;;;2.92;1.40;;;37.10;1.00;;;;;;5089329;28;20052;-88
2022/08/11 15:12:16;;;;;;;3.28;1.50;;;36.30;1.00;;;;;;5075260;28;20621;-87
2022/08/11 15:17:32;;;;;;;5.85;1.60;;;36.30;1.00;;;;;;5058479;28;20039;-87
2022/08/11 15:25:37;;;;;;;2.90;1.23;;;35.90;1.00;;;;;;5082053;28;20404;-86
2022/08/11 15:39:21;;;;;;;6.25;1.50;;;34.40;99.90;;;;;;5060159;28;20051;-87
2022/08/11 15:47:56;;;;;;;3.80;1.60;;;36.50;1.00;;;;;;5061925;28;20048;-87
2022/08/11 15:50:27;;;;;;;2.72;1.33;;;37.30;1.00;;;;;;5047658;28;20072;-88
2022/08/11 15:52:58;;;;;;;4.20;1.50;;;37.00;99.90;;;;;;5050318;28;20142;-88
2022/08/11 15:55:24;;;;;;;5.03;1.23;;;35.10;99.90;;;;;;5051001;28;20449;-88
2022/08/11 16:06:12;;;;;;;4.05;1.35;;;35.20;99.90;;;;;;5063105;28;20055;-89
2022/08/11 16:08:41;;;;;;;1.83;1.20;;;34.30;99.90;;;;;;5052391;28;20395;-87
2022/08/11 16:11:08;;;;;;;3.53;1.13;;;35.00;99.90;;;;;;5068768;28;20056;-88
2022/08/11 16:16:16;;;;;;;2.80;1.40;;;36.90;99.90;;;;;;5065096;28;20186;-88
2022/08/11 16:18:52;;;;;;;4.15;1.10;;;37.80;1.00;;;;;;5046032;28;20044;-89
2022/08/11 16:21:29;;;;;;;3.05;1.25;;;38.40;99.90;;;;;;5046918;28;20506;-88
2022/08/11 16:23:57;;;;;;;5.28;1.38;;;38.30;99.90;;;;;;5096795;28;20416;-87
2022/08/11 16:26:24;;;;;;;1.40;1.30;;;37.20;99.90;;;;;;5072227;28;20185;-89
2022/08/11 16:28:53;;;;;;;2.20;1.40;;;37.10;99.90;;;;;;5047337;28;20131;-89
2022/08/11 16:31:21;;;;;;;4.97;1.33;;;35.90;99.90;;;;;;5048180;28;20047;-88
2022/08/11 16:33:48;;;;;;;3.03;1.15;;;34.80;99.90;;;;;;5048166;28;20048;-88
2022/08/11 16:39:01;;;;;;;5.20;1.30;;;35.60;99.90;;;;;;5088218;28;20110;-88
2022/08/11 16:47:04;;;;;;;6.15;1.40;;;35.40;99.90;;;;;;5090203;28;20420;-87
2022/08/11 16:50:06;;;;;;;7.20;2.42;;;34.00;99.90;;;;;;5092350;28;20048;-88
2022/08/11 16:52:32;;;;;;;2.25;1.50;;;35.10;99.90;;;;;;5054122;28;20181;-87
2022/08/11 16:55:02;;;;;;;4.88;1.50;;;34.70;99.90;;;;;;5036776;28;20136;-88
2022/08/11 17:00:16;;;;;;;2.47;1.52;;;34.10;99.90;;;;;;5062676;28;20047;-88
2022/08/11 17:14:16;;;;;;;3.08;1.45;;;35.20;99.90;;;;;;5086152;28;20044;-88
2022/08/11 17:16:43;;;;;;;4.00;1.50;;;35.40;99.90;;;;;;5050517;28;20043;-87
2022/08/11 17:19:20;;;;;;;3.30;1.40;;;34.50;99.90;;;;;;5046625;28;20063;-89
2022/08/11 17:24:39;;;;;;;5.72;1.50;;;35.20;99.90;;;;;;5060835;28;20044;-88
2022/08/11 17:27:07;;;;;;;3.80;1.50;;;34.10;99.90;;;;;;5079116;28;20042;-88
2022/08/11 17:29:40;;;;;;;2.05;1.40;;;34.60;99.90;;;;;;5075174;28;20036;-88
2022/08/11 17:37:44;;;;;;;4.38;1.40;;;34.20;99.90;;;;;;5063897;28;20393;-87
2022/08/11 17:40:14;;;;;;;2.00;1.40;;;34.50;99.90;;;;;;5048632;28;20044;-87
2022/08/11 17:48:25;;;;;;;4.35;1.60;;;34.00;99.90;;;;;;5060137;28;20109;-88
2022/08/11 17:51:01;;;;;;;2.65;1.48;;;34.90;99.90;;;;;;5055540;28;20053;-88
2022/08/11 18:01:49;;;;;;;3.78;1.50;;;33.50;99.90;;;;;;5062217;28;20084;-87
2022/08/11 18:04:15;;;;;;;12.57;1.60;;;34.20;99.90;;;;;;5043017;28;20133;-88
2022/08/11 18:06:42;;;;;;;3.90;1.40;;;34.90;99.90;;;;;;5061194;28;20180;-88
